sensor_id;sensor_type;location;lat;lon;timestamp;P1;durP1;ratioP1;P2;durP2;ratioP2
62798;SDS011;48842;51.046;13.796;2023-05-10T00:01:12;2.50;;;2.30;;
62798;SDS011;48842;51.046;13.796;2023-05-10T00:03:37;2.60;;;2.50;;
62798;SDS011;48842;51.046;13.796;2023-05-10T00:06:03;2.63;;;2.50;;
62798;SDS011;48842;51.046;13.796;2023-05-10T00:08:28;4.87;;;2.37;;
62798;SDS011;48842;51.046;13.796;2023-05-10T00:10:53;3.53;;;2.30;;
62798;SDS011;48842;51.046;13.796;2023-05-10T00:13:18;5.33;;;2.03;;
62798;SDS011;48842;51.046;13.796;2023-05-10T00:15:44;2.67;;;2.47;;
62798;SDS011;48842;51.046;13.796;2023-05-10T00:18:09;2.67;;;2.47;;
62798;SDS011;48842;51.046;13.796;2023-05-10T00:20:35;2.93;;;2.53;;
62798;SDS011;48842;51.046;13.796;2023-05-10T00:23:00;2.33;;;2.13;;
62798;SDS011;48842;51.046;13.796;2023-05-10T00:25:25;2.90;;;2.27;;
62798;SDS011;48842;51.046;13.796;2023-05-10T00:27:50;2.13;;;2.03;;
62798;SDS011;48842;51.046;13.796;2023-05-10T00:30:16;2.93;;;2.70;;
62798;SDS011;48842;51.046;13.796;2023-05-10T00:32:41;2.33;;;2.13;;
62798;SDS011;48842;51.046;13.796;2023-05-10T00:35:07;2.60;;;2.40;;
62798;SDS011;48842;51.046;13.796;2023-05-10T00:37:32;2.60;;;2.40;;
62798;SDS011;48842;51.046;13.796;2023-05-10T00:39:58;2.30;;;2.20;;
62798;SDS011;48842;51.046;13.796;2023-05-10T00:42:23;9.63;;;2.97;;
62798;SDS011;48842;51.046;13.796;2023-05-10T00:44:48;2.77;;;2.00;;
62798;SDS011;48842;51.046;13.796;2023-05-10T00:47:13;2.33;;;2.13;;
62798;SDS011;48842;51.046;13.796;2023-05-10T00:49:39;2.20;;;2.00;;
62798;SDS011;48842;51.046;13.796;2023-05-10T00:52:05;2.80;;;2.60;;
62798;SDS011;48842;51.046;13.796;2023-05-10T00:54:31;2.53;;;2.33;;
62798;SDS011;48842;51.046;13.796;2023-05-10T00:56:56;2.83;;;2.43;;
62798;SDS011;48842;51.046;13.796;2023-05-10T00:59:22;4.27;;;1.83;;
62798;SDS011;48842;51.046;13.796;2023-05-10T01:01:47;2.07;;;1.97;;
62798;SDS011;48842;51.046;13.796;2023-05-10T01:04:13;2.13;;;1.90;;
62798;SDS011;48842;51.046;13.796;2023-05-10T01:06:39;1.50;;;1.40;;
62798;SDS011;48842;51.046;13.796;2023-05-10T01:09:05;2.40;;;2.20;;
62798;SDS011;48842;51.046;13.796;2023-05-10T01:11:31;2.60;;;2.40;;
62798;SDS011;48842;51.046;13.796;2023-05-10T01:13:58;2.70;;;2.13;;
62798;SDS011;48842;51.046;13.796;2023-05-10T01:16:24;2.10;;;1.90;;
62798;SDS011;48842;51.046;13.796;2023-05-10T01:18:50;3.83;;;2.10;;
62798;SDS011;48842;51.046;13.796;2023-05-10T01:21:19;3.77;;;2.00;;
62798;SDS011;48842;51.046;13.796;2023-05-10T01:24:03;2.27;;;2.07;;
62798;SDS011;48842;51.046;13.796;2023-05-10T01:27:01;1.80;;;1.70;;
62798;SDS011;48842;51.046;13.796;2023-05-10T01:32:31;2.20;;;1.90;;
62798;SDS011;48842;51.046;13.796;2023-05-10T01:35:13;3.77;;;2.20;;
62798;SDS011;48842;51.046;13.796;2023-05-10T01:37:47;3.53;;;2.13;;
62798;SDS011;48842;51.046;13.796;2023-05-10T01:40:29;2.90;;;2.30;;
62798;SDS011;48842;51.046;13.796;2023-05-10T01:43:01;3.13;;;2.10;;
62798;SDS011;48842;51.046;13.796;2023-05-10T01:45:33;2.47;;;2.37;;
62798;SDS011;48842;51.046;13.796;2023-05-10T01:48:05;2.60;;;2.33;;
62798;SDS011;48842;51.046;13.796;2023-05-10T01:50:35;8.90;;;2.00;;
62798;SDS011;48842;51.046;13.796;2023-05-10T01:53:02;3.00;;;1.93;;
62798;SDS011;48842;51.046;13.796;2023-05-10T01:55:32;1.97;;;1.87;;
62798;SDS011;48842;51.046;13.796;2023-05-10T01:58:06;1.70;;;1.47;;
62798;SDS011;48842;51.046;13.796;2023-05-10T02:00:34;4.47;;;2.10;;
62798;SDS011;48842;51.046;13.796;2023-05-10T02:03:00;20.13;;;2.50;;
62798;SDS011;48842;51.046;13.796;2023-05-10T02:05:33;4.90;;;2.30;;
62798;SDS011;48842;51.046;13.796;2023-05-10T02:08:00;2.30;;;2.10;;
62798;SDS011;48842;51.046;13.796;2023-05-10T02:10:28;2.30;;;2.20;;
62798;SDS011;48842;51.046;13.796;2023-05-10T02:12:54;3.00;;;2.00;;
62798;SDS011;48842;51.046;13.796;2023-05-10T02:15:23;2.20;;;2.00;;
62798;SDS011;48842;51.046;13.796;2023-05-10T02:17:49;2.97;;;2.60;;
62798;SDS011;48842;51.046;13.796;2023-05-10T02:20:16;2.30;;;2.13;;
62798;SDS011;48842;51.046;13.796;2023-05-10T02:22:43;2.73;;;1.97;;
62798;SDS011;48842;51.046;13.796;2023-05-10T02:25:11;2.50;;;2.30;;
62798;SDS011;48842;51.046;13.796;2023-05-10T02:27:38;5.70;;;2.50;;
62798;SDS011;48842;51.046;13.796;2023-05-10T02:30:06;2.70;;;1.73;;
62798;SDS011;48842;51.046;13.796;2023-05-10T02:32:32;2.03;;;1.93;;
62798;SDS011;48842;51.046;13.796;2023-05-10T02:34:59;2.10;;;2.00;;
62798;SDS011;48842;51.046;13.796;2023-05-10T02:37:26;2.33;;;2.23;;
62798;SDS011;48842;51.046;13.796;2023-05-10T02:39:52;2.40;;;2.20;;
62798;SDS011;48842;51.046;13.796;2023-05-10T02:42:19;3.47;;;2.20;;
62798;SDS011;48842;51.046;13.796;2023-05-10T02:44:48;4.67;;;2.40;;
62798;SDS011;48842;51.046;13.796;2023-05-10T02:47:17;8.30;;;2.10;;
62798;SDS011;48842;51.046;13.796;2023-05-10T02:49:43;2.40;;;2.20;;
62798;SDS011;48842;51.046;13.796;2023-05-10T02:52:08;2.20;;;2.10;;
62798;SDS011;48842;51.046;13.796;2023-05-10T02:54:39;5.90;;;2.10;;
62798;SDS011;48842;51.046;13.796;2023-05-10T02:57:08;4.70;;;2.10;;
62798;SDS011;48842;51.046;13.796;2023-05-10T02:59:36;1.90;;;1.80;;
62798;SDS011;48842;51.046;13.796;2023-05-10T03:02:02;2.20;;;2.10;;
62798;SDS011;48842;51.046;13.796;2023-05-10T03:04:28;2.47;;;2.37;;
62798;SDS011;48842;51.046;13.796;2023-05-10T03:06:53;3.40;;;1.80;;
62798;SDS011;48842;51.046;13.796;2023-05-10T03:09:18;2.70;;;1.83;;
62798;SDS011;48842;51.046;13.796;2023-05-10T03:15:03;2.77;;;2.57;;
62798;SDS011;48842;51.046;13.796;2023-05-10T03:17:30;4.73;;;2.53;;
62798;SDS011;48842;51.046;13.796;2023-05-10T03:20:11;4.30;;;2.33;;
62798;SDS011;48842;51.046;13.796;2023-05-10T03:22:44;2.70;;;2.40;;
62798;SDS011;48842;51.046;13.796;2023-05-10T03:25:11;2.20;;;2.10;;
62798;SDS011;48842;51.046;13.796;2023-05-10T03:27:40;6.37;;;2.50;;
62798;SDS011;48842;51.046;13.796;2023-05-10T03:30:08;2.37;;;2.20;;
62798;SDS011;48842;51.046;13.796;2023-05-10T03:32:35;2.00;;;1.90;;
62798;SDS011;48842;51.046;13.796;2023-05-10T03:35:00;2.20;;;2.00;;
62798;SDS011;48842;51.046;13.796;2023-05-10T03:37:26;5.00;;;2.03;;
62798;SDS011;48842;51.046;13.796;2023-05-10T03:39:51;2.23;;;2.03;;
62798;SDS011;48842;51.046;13.796;2023-05-10T03:42:16;2.50;;;2.30;;
62798;SDS011;48842;51.046;13.796;2023-05-10T03:44:42;2.27;;;2.17;;
62798;SDS011;48842;51.046;13.796;2023-05-10T03:47:11;6.70;;;1.90;;
62798;SDS011;48842;51.046;13.796;2023-05-10T03:49:36;1.93;;;1.73;;
62798;SDS011;48842;51.046;13.796;2023-05-10T03:52:01;1.70;;;1.60;;
62798;SDS011;48842;51.046;13.796;2023-05-10T03:54:26;3.90;;;2.57;;
62798;SDS011;48842;51.046;13.796;2023-05-10T03:56:51;2.77;;;2.57;;
62798;SDS011;48842;51.046;13.796;2023-05-10T03:59:17;3.67;;;2.30;;
62798;SDS011;48842;51.046;13.796;2023-05-10T04:01:42;2.83;;;2.43;;
62798;SDS011;48842;51.046;13.796;2023-05-10T04:04:07;3.93;;;1.87;;
62798;SDS011;48842;51.046;13.796;2023-05-10T04:06:32;2.47;;;2.27;;
62798;SDS011;48842;51.046;13.796;2023-05-10T04:08:58;5.47;;;2.23;;
62798;SDS011;48842;51.046;13.796;2023-05-10T04:11:26;3.97;;;2.40;;
62798;SDS011;48842;51.046;13.796;2023-05-10T04:13:51;2.90;;;1.90;;
62798;SDS011;48842;51.046;13.796;2023-05-10T04:16:16;6.20;;;2.47;;
62798;SDS011;48842;51.046;13.796;2023-05-10T04:18:42;2.47;;;2.30;;
62798;SDS011;48842;51.046;13.796;2023-05-10T04:21:13;2.37;;;2.20;;
62798;SDS011;48842;51.046;13.796;2023-05-10T04:23:39;2.10;;;1.90;;
62798;SDS011;48842;51.046;13.796;2023-05-10T04:26:04;2.57;;;2.00;;
62798;SDS011;48842;51.046;13.796;2023-05-10T04:28:30;3.50;;;2.03;;
62798;SDS011;48842;51.046;13.796;2023-05-10T04:31:05;4.20;;;2.20;;
62798;SDS011;48842;51.046;13.796;2023-05-10T04:33:31;2.50;;;2.20;;
62798;SDS011;48842;51.046;13.796;2023-05-10T04:35:57;2.60;;;2.40;;
62798;SDS011;48842;51.046;13.796;2023-05-10T04:38:22;3.20;;;2.37;;
62798;SDS011;48842;51.046;13.796;2023-05-10T04:40:47;3.00;;;2.00;;
62798;SDS011;48842;51.046;13.796;2023-05-10T04:43:13;2.00;;;1.90;;
62798;SDS011;48842;51.046;13.796;2023-05-10T04:45:38;5.80;;;2.20;;
62798;SDS011;48842;51.046;13.796;2023-05-10T04:48:03;2.23;;;2.13;;
62798;SDS011;48842;51.046;13.796;2023-05-10T04:50:29;6.17;;;2.67;;
62798;SDS011;48842;51.046;13.796;2023-05-10T04:52:54;2.47;;;2.27;;
62798;SDS011;48842;51.046;13.796;2023-05-10T04:55:20;1.93;;;1.80;;
62798;SDS011;48842;51.046;13.796;2023-05-10T04:57:45;3.30;;;2.10;;
62798;SDS011;48842;51.046;13.796;2023-05-10T05:00:10;2.60;;;1.93;;
62798;SDS011;48842;51.046;13.796;2023-05-10T05:02:36;2.07;;;1.97;;
62798;SDS011;48842;51.046;13.796;2023-05-10T05:05:01;2.00;;;1.90;;
62798;SDS011;48842;51.046;13.796;2023-05-10T05:07:26;2.20;;;2.00;;
62798;SDS011;48842;51.046;13.796;2023-05-10T05:09:52;7.37;;;1.90;;
62798;SDS011;48842;51.046;13.796;2023-05-10T05:12:17;1.80;;;1.70;;
62798;SDS011;48842;51.046;13.796;2023-05-10T05:14:42;4.93;;;2.37;;
62798;SDS011;48842;51.046;13.796;2023-05-10T05:17:08;4.73;;;2.17;;
62798;SDS011;48842;51.046;13.796;2023-05-10T05:19:36;5.10;;;2.00;;
62798;SDS011;48842;51.046;13.796;2023-05-10T05:22:01;2.30;;;2.20;;
62798;SDS011;48842;51.046;13.796;2023-05-10T05:24:27;2.90;;;1.70;;
62798;SDS011;48842;51.046;13.796;2023-05-10T05:26:52;3.10;;;2.23;;
62798;SDS011;48842;51.046;13.796;2023-05-10T05:29:17;2.27;;;2.07;;
62798;SDS011;48842;51.046;13.796;2023-05-10T05:31:42;4.00;;;2.00;;
62798;SDS011;48842;51.046;13.796;2023-05-10T05:34:07;8.20;;;2.20;;
62798;SDS011;48842;51.046;13.796;2023-05-10T05:36:35;4.03;;;2.27;;
62798;SDS011;48842;51.046;13.796;2023-05-10T05:39:03;5.67;;;1.83;;
62798;SDS011;48842;51.046;13.796;2023-05-10T05:41:28;6.80;;;2.40;;
62798;SDS011;48842;51.046;13.796;2023-05-10T05:43:53;4.17;;;2.53;;
62798;SDS011;48842;51.046;13.796;2023-05-10T05:46:18;8.40;;;2.17;;
62798;SDS011;48842;51.046;13.796;2023-05-10T05:48:44;12.40;;;2.70;;
62798;SDS011;48842;51.046;13.796;2023-05-10T05:51:09;3.93;;;2.10;;
62798;SDS011;48842;51.046;13.796;2023-05-10T05:53:34;2.27;;;2.00;;
62798;SDS011;48842;51.046;13.796;2023-05-10T05:56:00;11.10;;;2.40;;
62798;SDS011;48842;51.046;13.796;2023-05-10T05:58:25;1.77;;;1.67;;
62798;SDS011;48842;51.046;13.796;2023-05-10T06:00:51;2.23;;;2.13;;
62798;SDS011;48842;51.046;13.796;2023-05-10T06:03:16;9.87;;;2.47;;
62798;SDS011;48842;51.046;13.796;2023-05-10T06:05:42;8.60;;;2.20;;
62798;SDS011;48842;51.046;13.796;2023-05-10T06:08:07;5.13;;;2.10;;
62798;SDS011;48842;51.046;13.796;2023-05-10T06:10:33;6.70;;;2.20;;
62798;SDS011;48842;51.046;13.796;2023-05-10T06:12:58;3.20;;;2.10;;
62798;SDS011;48842;51.046;13.796;2023-05-10T06:15:23;3.43;;;1.97;;
62798;SDS011;48842;51.046;13.796;2023-05-10T06:17:48;1.93;;;1.83;;
62798;SDS011;48842;51.046;13.796;2023-05-10T06:20:14;2.30;;;1.80;;
62798;SDS011;48842;51.046;13.796;2023-05-10T06:22:40;1.90;;;1.80;;
62798;SDS011;48842;51.046;13.796;2023-05-10T06:25:05;2.50;;;2.27;;
62798;SDS011;48842;51.046;13.796;2023-05-10T06:27:31;9.30;;;2.60;;
62798;SDS011;48842;51.046;13.796;2023-05-10T06:29:56;2.93;;;2.07;;
62798;SDS011;48842;51.046;13.796;2023-05-10T06:32:22;2.60;;;2.40;;
62798;SDS011;48842;51.046;13.796;2023-05-10T06:34:47;2.37;;;2.17;;
62798;SDS011;48842;51.046;13.796;2023-05-10T06:37:12;2.83;;;2.07;;
62798;SDS011;48842;51.046;13.796;2023-05-10T06:39:37;4.90;;;1.90;;
62798;SDS011;48842;51.046;13.796;2023-05-10T06:42:03;3.10;;;2.20;;
62798;SDS011;48842;51.046;13.796;2023-05-10T06:44:29;29.97;;;4.53;;
62798;SDS011;48842;51.046;13.796;2023-05-10T06:46:55;2.60;;;2.40;;
62798;SDS011;48842;51.046;13.796;2023-05-10T06:49:20;2.30;;;2.20;;
62798;SDS011;48842;51.046;13.796;2023-05-10T06:51:46;3.50;;;2.90;;
62798;SDS011;48842;51.046;13.796;2023-05-10T06:54:11;3.30;;;2.00;;
62798;SDS011;48842;51.046;13.796;2023-05-10T06:56:36;10.47;;;2.60;;
62798;SDS011;48842;51.046;13.796;2023-05-10T06:59:01;3.23;;;2.13;;
62798;SDS011;48842;51.046;13.796;2023-05-10T07:01:27;2.77;;;2.60;;
62798;SDS011;48842;51.046;13.796;2023-05-10T07:03:53;5.30;;;3.07;;
62798;SDS011;48842;51.046;13.796;2023-05-10T07:06:18;3.30;;;3.00;;
62798;SDS011;48842;51.046;13.796;2023-05-10T07:08:43;3.17;;;2.30;;
62798;SDS011;48842;51.046;13.796;2023-05-10T07:11:08;5.23;;;2.50;;
62798;SDS011;48842;51.046;13.796;2023-05-10T07:13:35;3.53;;;2.27;;
62798;SDS011;48842;51.046;13.796;2023-05-10T07:16:01;6.93;;;2.23;;
62798;SDS011;48842;51.046;13.796;2023-05-10T07:18:27;5.43;;;2.93;;
62798;SDS011;48842;51.046;13.796;2023-05-10T07:20:52;5.90;;;2.50;;
62798;SDS011;48842;51.046;13.796;2023-05-10T07:23:18;2.83;;;2.37;;
62798;SDS011;48842;51.046;13.796;2023-05-10T07:25:47;5.73;;;2.90;;
62798;SDS011;48842;51.046;13.796;2023-05-10T07:28:16;3.43;;;2.47;;
62798;SDS011;48842;51.046;13.796;2023-05-10T07:30:41;6.03;;;2.60;;
62798;SDS011;48842;51.046;13.796;2023-05-10T07:33:07;4.27;;;2.70;;
62798;SDS011;48842;51.046;13.796;2023-05-10T07:35:33;15.90;;;3.07;;
62798;SDS011;48842;51.046;13.796;2023-05-10T07:37:59;8.43;;;2.97;;
62798;SDS011;48842;51.046;13.796;2023-05-10T07:40:24;6.40;;;2.30;;
62798;SDS011;48842;51.046;13.796;2023-05-10T07:42:50;7.70;;;2.83;;
62798;SDS011;48842;51.046;13.796;2023-05-10T07:45:15;5.00;;;2.70;;
62798;SDS011;48842;51.046;13.796;2023-05-10T07:47:40;4.10;;;2.90;;
62798;SDS011;48842;51.046;13.796;2023-05-10T07:50:06;5.17;;;2.40;;
62798;SDS011;48842;51.046;13.796;2023-05-10T07:52:32;3.30;;;2.70;;
62798;SDS011;48842;51.046;13.796;2023-05-10T07:54:57;6.10;;;3.20;;
62798;SDS011;48842;51.046;13.796;2023-05-10T07:57:23;5.70;;;3.27;;
62798;SDS011;48842;51.046;13.796;2023-05-10T07:59:48;6.50;;;2.70;;
62798;SDS011;48842;51.046;13.796;2023-05-10T08:02:13;3.20;;;2.40;;
62798;SDS011;48842;51.046;13.796;2023-05-10T08:04:38;3.20;;;2.97;;
62798;SDS011;48842;51.046;13.796;2023-05-10T08:07:04;4.60;;;3.40;;
62798;SDS011;48842;51.046;13.796;2023-05-10T08:09:29;5.10;;;2.87;;
62798;SDS011;48842;51.046;13.796;2023-05-10T08:11:54;6.30;;;3.00;;
62798;SDS011;48842;51.046;13.796;2023-05-10T08:14:20;13.00;;;3.40;;
62798;SDS011;48842;51.046;13.796;2023-05-10T08:16:45;4.40;;;3.17;;
62798;SDS011;48842;51.046;13.796;2023-05-10T08:19:10;2.87;;;2.67;;
62798;SDS011;48842;51.046;13.796;2023-05-10T08:21:35;6.70;;;3.17;;
62798;SDS011;48842;51.046;13.796;2023-05-10T08:24:01;4.80;;;3.37;;
62798;SDS011;48842;51.046;13.796;2023-05-10T08:26:26;9.47;;;3.70;;
62798;SDS011;48842;51.046;13.796;2023-05-10T08:28:51;3.27;;;2.53;;
62798;SDS011;48842;51.046;13.796;2023-05-10T08:31:17;8.30;;;3.27;;
62798;SDS011;48842;51.046;13.796;2023-05-10T08:33:43;3.57;;;3.27;;
62798;SDS011;48842;51.046;13.796;2023-05-10T08:36:08;6.83;;;3.13;;
62798;SDS011;48842;51.046;13.796;2023-05-10T08:38:33;3.50;;;2.90;;
62798;SDS011;48842;51.046;13.796;2023-05-10T08:40:59;3.17;;;2.70;;
62798;SDS011;48842;51.046;13.796;2023-05-10T08:43:27;6.83;;;3.03;;
62798;SDS011;48842;51.046;13.796;2023-05-10T08:45:54;18.00;;;3.43;;
62798;SDS011;48842;51.046;13.796;2023-05-10T08:48:21;3.40;;;3.10;;
62798;SDS011;48842;51.046;13.796;2023-05-10T08:50:48;3.13;;;2.83;;
62798;SDS011;48842;51.046;13.796;2023-05-10T08:53:16;4.17;;;3.17;;
62798;SDS011;48842;51.046;13.796;2023-05-10T08:55:42;8.03;;;3.00;;
62798;SDS011;48842;51.046;13.796;2023-05-10T08:58:08;4.30;;;3.13;;
62798;SDS011;48842;51.046;13.796;2023-05-10T09:00:34;4.13;;;3.10;;
62798;SDS011;48842;51.046;13.796;2023-05-10T09:03:00;3.50;;;3.20;;
62798;SDS011;48842;51.046;13.796;2023-05-10T09:05:26;5.53;;;4.00;;
62798;SDS011;48842;51.046;13.796;2023-05-10T09:07:52;4.20;;;3.17;;
62798;SDS011;48842;51.046;13.796;2023-05-10T09:10:17;4.97;;;3.37;;
62798;SDS011;48842;51.046;13.796;2023-05-10T09:12:44;4.83;;;3.10;;
62798;SDS011;48842;51.046;13.796;2023-05-10T09:15:10;5.90;;;2.90;;
62798;SDS011;48842;51.046;13.796;2023-05-10T09:17:37;6.57;;;3.70;;
62798;SDS011;48842;51.046;13.796;2023-05-10T09:20:03;4.13;;;3.00;;
62798;SDS011;48842;51.046;13.796;2023-05-10T09:22:30;3.77;;;3.43;;
62798;SDS011;48842;51.046;13.796;2023-05-10T09:25:05;3.83;;;2.90;;
62798;SDS011;48842;51.046;13.796;2023-05-10T09:27:35;6.90;;;3.50;;
62798;SDS011;48842;51.046;13.796;2023-05-10T09:30:02;3.57;;;3.33;;
62798;SDS011;48842;51.046;13.796;2023-05-10T09:32:41;6.23;;;3.30;;
62798;SDS011;48842;51.046;13.796;2023-05-10T09:35:14;7.07;;;3.60;;
62798;SDS011;48842;51.046;13.796;2023-05-10T09:37:41;6.60;;;3.60;;
62798;SDS011;48842;51.046;13.796;2023-05-10T09:40:08;4.60;;;4.00;;
62798;SDS011;48842;51.046;13.796;2023-05-10T09:42:36;5.47;;;3.67;;
62798;SDS011;48842;51.046;13.796;2023-05-10T09:45:02;6.07;;;3.53;;
62798;SDS011;48842;51.046;13.796;2023-05-10T09:47:32;4.80;;;3.00;;
62798;SDS011;48842;51.046;13.796;2023-05-10T09:49:58;3.30;;;3.03;;
62798;SDS011;48842;51.046;13.796;2023-05-10T09:52:28;3.40;;;2.90;;
62798;SDS011;48842;51.046;13.796;2023-05-10T09:54:54;5.10;;;3.40;;
62798;SDS011;48842;51.046;13.796;2023-05-10T09:57:23;3.53;;;3.20;;
62798;SDS011;48842;51.046;13.796;2023-05-10T09:59:49;5.70;;;3.60;;
62798;SDS011;48842;51.046;13.796;2023-05-10T10:02:15;4.00;;;3.10;;
62798;SDS011;48842;51.046;13.796;2023-05-10T10:04:41;4.87;;;3.10;;
62798;SDS011;48842;51.046;13.796;2023-05-10T10:07:07;3.17;;;2.97;;
62798;SDS011;48842;51.046;13.796;2023-05-10T10:09:32;13.53;;;3.70;;
62798;SDS011;48842;51.046;13.796;2023-05-10T10:11:59;3.80;;;3.50;;
62798;SDS011;48842;51.046;13.796;2023-05-10T10:14:25;4.47;;;3.67;;
62798;SDS011;48842;51.046;13.796;2023-05-10T10:16:51;3.90;;;3.53;;
62798;SDS011;48842;51.046;13.796;2023-05-10T10:19:20;3.40;;;3.10;;
62798;SDS011;48842;51.046;13.796;2023-05-10T10:21:46;5.10;;;3.80;;
62798;SDS011;48842;51.046;13.796;2023-05-10T10:24:12;6.73;;;3.23;;
62798;SDS011;48842;51.046;13.796;2023-05-10T10:26:37;3.40;;;3.10;;
62798;SDS011;48842;51.046;13.796;2023-05-10T10:29:10;15.40;;;3.97;;
62798;SDS011;48842;51.046;13.796;2023-05-10T10:31:47;4.10;;;3.37;;
62798;SDS011;48842;51.046;13.796;2023-05-10T10:34:27;4.63;;;3.17;;
62798;SDS011;48842;51.046;13.796;2023-05-10T10:36:54;4.77;;;3.30;;
62798;SDS011;48842;51.046;13.796;2023-05-10T10:39:21;4.80;;;3.20;;
62798;SDS011;48842;51.046;13.796;2023-05-10T10:42:05;5.70;;;3.30;;
62798;SDS011;48842;51.046;13.796;2023-05-10T10:49:44;4.37;;;4.07;;
62798;SDS011;48842;51.046;13.796;2023-05-10T11:00:29;4.07;;;3.30;;
62798;SDS011;48842;51.046;13.796;2023-05-10T11:07:54;6.30;;;3.40;;
62798;SDS011;48842;51.046;13.796;2023-05-10T11:10:20;4.10;;;3.70;;
62798;SDS011;48842;51.046;13.796;2023-05-10T11:13:05;4.67;;;3.83;;
62798;SDS011;48842;51.046;13.796;2023-05-10T11:15:33;3.37;;;3.17;;
62798;SDS011;48842;51.046;13.796;2023-05-10T11:18:00;8.10;;;3.93;;
62798;SDS011;48842;51.046;13.796;2023-05-10T11:20:41;6.40;;;3.80;;
62798;SDS011;48842;51.046;13.796;2023-05-10T11:23:10;6.10;;;3.60;;
62798;SDS011;48842;51.046;13.796;2023-05-10T11:25:44;4.00;;;3.43;;
62798;SDS011;48842;51.046;13.796;2023-05-10T11:28:13;4.00;;;3.70;;
62798;SDS011;48842;51.046;13.796;2023-05-10T11:30:39;3.40;;;3.10;;
62798;SDS011;48842;51.046;13.796;2023-05-10T11:33:05;3.83;;;3.53;;
62798;SDS011;48842;51.046;13.796;2023-05-10T11:35:36;3.17;;;2.87;;
62798;SDS011;48842;51.046;13.796;2023-05-10T11:38:05;5.50;;;4.13;;
62798;SDS011;48842;51.046;13.796;2023-05-10T11:40:31;5.73;;;4.10;;
62798;SDS011;48842;51.046;13.796;2023-05-10T11:42:56;7.50;;;3.30;;
62798;SDS011;48842;51.046;13.796;2023-05-10T11:45:23;4.03;;;2.70;;
62798;SDS011;48842;51.046;13.796;2023-05-10T11:47:49;5.07;;;3.30;;
62798;SDS011;48842;51.046;13.796;2023-05-10T11:50:14;5.93;;;3.00;;
62798;SDS011;48842;51.046;13.796;2023-05-10T11:52:40;3.50;;;3.30;;
62798;SDS011;48842;51.046;13.796;2023-05-10T11:55:05;6.43;;;3.57;;
62798;SDS011;48842;51.046;13.796;2023-05-10T11:57:31;3.57;;;3.20;;
62798;SDS011;48842;51.046;13.796;2023-05-10T11:59:56;10.77;;;3.13;;
62798;SDS011;48842;51.046;13.796;2023-05-10T12:02:22;7.20;;;2.97;;
62798;SDS011;48842;51.046;13.796;2023-05-10T12:04:48;6.07;;;3.30;;
62798;SDS011;48842;51.046;13.796;2023-05-10T12:07:14;5.13;;;3.00;;
62798;SDS011;48842;51.046;13.796;2023-05-10T12:09:43;4.33;;;3.60;;
62798;SDS011;48842;51.046;13.796;2023-05-10T12:12:09;8.63;;;4.20;;
62798;SDS011;48842;51.046;13.796;2023-05-10T12:14:35;3.43;;;3.13;;
62798;SDS011;48842;51.046;13.796;2023-05-10T12:17:01;6.60;;;3.60;;
62798;SDS011;48842;51.046;13.796;2023-05-10T12:19:26;5.50;;;3.80;;
62798;SDS011;48842;51.046;13.796;2023-05-10T12:21:51;19.60;;;4.90;;
62798;SDS011;48842;51.046;13.796;2023-05-10T12:24:17;8.33;;;4.10;;
62798;SDS011;48842;51.046;13.796;2023-05-10T12:26:42;8.63;;;3.70;;
62798;SDS011;48842;51.046;13.796;2023-05-10T12:29:13;18.83;;;4.27;;
62798;SDS011;48842;51.046;13.796;2023-05-10T12:31:50;6.43;;;4.00;;
62798;SDS011;48842;51.046;13.796;2023-05-10T12:34:35;5.30;;;4.03;;
62798;SDS011;48842;51.046;13.796;2023-05-10T12:37:01;4.93;;;4.33;;
62798;SDS011;48842;51.046;13.796;2023-05-10T12:39:38;4.53;;;3.37;;
62798;SDS011;48842;51.046;13.796;2023-05-10T12:42:07;3.80;;;3.50;;
62798;SDS011;48842;51.046;13.796;2023-05-10T12:44:32;3.70;;;3.40;;
62798;SDS011;48842;51.046;13.796;2023-05-10T12:46:58;4.17;;;3.77;;
62798;SDS011;48842;51.046;13.796;2023-05-10T12:49:23;3.97;;;3.50;;
62798;SDS011;48842;51.046;13.796;2023-05-10T12:51:48;3.87;;;3.57;;
62798;SDS011;48842;51.046;13.796;2023-05-10T12:54:13;13.10;;;4.57;;
62798;SDS011;48842;51.046;13.796;2023-05-10T12:56:39;6.27;;;3.10;;
62798;SDS011;48842;51.046;13.796;2023-05-10T12:59:05;9.77;;;4.20;;
62798;SDS011;48842;51.046;13.796;2023-05-10T13:01:30;4.77;;;3.33;;
62798;SDS011;48842;51.046;13.796;2023-05-10T13:03:56;5.30;;;3.00;;
62798;SDS011;48842;51.046;13.796;2023-05-10T13:06:21;5.00;;;3.33;;
62798;SDS011;48842;51.046;13.796;2023-05-10T13:08:46;3.37;;;3.17;;
62798;SDS011;48842;51.046;13.796;2023-05-10T13:11:11;9.47;;;3.30;;
62798;SDS011;48842;51.046;13.796;2023-05-10T13:13:41;5.10;;;3.30;;
62798;SDS011;48842;51.046;13.796;2023-05-10T13:16:09;4.10;;;3.73;;
62798;SDS011;48842;51.046;13.796;2023-05-10T13:18:34;5.13;;;3.17;;
62798;SDS011;48842;51.046;13.796;2023-05-10T13:21:00;3.97;;;3.57;;
62798;SDS011;48842;51.046;13.796;2023-05-10T13:23:25;3.30;;;3.10;;
62798;SDS011;48842;51.046;13.796;2023-05-10T13:25:50;7.90;;;3.60;;
62798;SDS011;48842;51.046;13.796;2023-05-10T13:28:16;2.97;;;2.77;;
62798;SDS011;48842;51.046;13.796;2023-05-10T13:30:41;4.63;;;3.07;;
62798;SDS011;48842;51.046;13.796;2023-05-10T13:33:06;3.07;;;2.87;;
62798;SDS011;48842;51.046;13.796;2023-05-10T13:35:31;2.73;;;2.63;;
62798;SDS011;48842;51.046;13.796;2023-05-10T13:37:56;2.93;;;2.83;;
62798;SDS011;48842;51.046;13.796;2023-05-10T13:40:22;3.70;;;2.80;;
62798;SDS011;48842;51.046;13.796;2023-05-10T13:42:47;4.50;;;2.90;;
62798;SDS011;48842;51.046;13.796;2023-05-10T13:45:13;3.37;;;3.13;;
62798;SDS011;48842;51.046;13.796;2023-05-10T13:47:38;3.30;;;3.00;;
62798;SDS011;48842;51.046;13.796;2023-05-10T13:50:03;4.17;;;3.10;;
62798;SDS011;48842;51.046;13.796;2023-05-10T13:52:29;3.43;;;3.13;;
62798;SDS011;48842;51.046;13.796;2023-05-10T13:54:54;3.07;;;2.87;;
62798;SDS011;48842;51.046;13.796;2023-05-10T13:57:20;2.73;;;2.60;;
62798;SDS011;48842;51.046;13.796;2023-05-10T13:59:45;4.90;;;2.80;;
62798;SDS011;48842;51.046;13.796;2023-05-10T14:02:11;7.53;;;3.30;;
62798;SDS011;48842;51.046;13.796;2023-05-10T14:04:37;7.23;;;3.07;;
62798;SDS011;48842;51.046;13.796;2023-05-10T14:07:03;5.37;;;3.03;;
62798;SDS011;48842;51.046;13.796;2023-05-10T14:09:28;3.57;;;2.90;;
62798;SDS011;48842;51.046;13.796;2023-05-10T14:11:53;5.10;;;2.90;;
62798;SDS011;48842;51.046;13.796;2023-05-10T14:14:18;3.37;;;2.80;;
62798;SDS011;48842;51.046;13.796;2023-05-10T14:16:44;4.10;;;2.70;;
62798;SDS011;48842;51.046;13.796;2023-05-10T14:19:09;4.87;;;3.00;;
62798;SDS011;48842;51.046;13.796;2023-05-10T14:21:35;3.23;;;3.03;;
62798;SDS011;48842;51.046;13.796;2023-05-10T14:24:00;3.30;;;2.57;;
62798;SDS011;48842;51.046;13.796;2023-05-10T14:26:26;4.00;;;2.50;;
62798;SDS011;48842;51.046;13.796;2023-05-10T14:28:52;3.10;;;2.60;;
62798;SDS011;48842;51.046;13.796;2023-05-10T14:31:17;2.60;;;2.40;;
62798;SDS011;48842;51.046;13.796;2023-05-10T14:33:44;3.27;;;2.53;;
62798;SDS011;48842;51.046;13.796;2023-05-10T14:36:09;6.93;;;3.03;;
62798;SDS011;48842;51.046;13.796;2023-05-10T14:38:35;3.13;;;2.93;;
62798;SDS011;48842;51.046;13.796;2023-05-10T14:41:00;2.60;;;2.40;;
62798;SDS011;48842;51.046;13.796;2023-05-10T14:43:26;3.30;;;3.10;;
62798;SDS011;48842;51.046;13.796;2023-05-10T14:45:52;4.20;;;2.80;;
62798;SDS011;48842;51.046;13.796;2023-05-10T14:48:17;3.03;;;2.77;;
62798;SDS011;48842;51.046;13.796;2023-05-10T14:50:43;2.83;;;2.60;;
62798;SDS011;48842;51.046;13.796;2023-05-10T14:53:08;3.47;;;2.97;;
62798;SDS011;48842;51.046;13.796;2023-05-10T14:55:33;3.10;;;2.90;;